Chaffee Village, Texas
Current Conditions -  °F | °C
As of 8:56 AM on Monday 24 Nov 2014 (Local Time) from KHLR Reporting Station
Clear Clear  
Wind Chill: 53°   Ceiling: Unl
Heat Index: 53°   Visibility: 10mi
Dew Point: 33°   Wind: 17mph
Humidity: 47%   Direction: 310°NW
Pressure: 30.06"   Gusts: NA
Location:  31.2151°N, 97.7405°W
Report Text: KHLR 241456Z AUTO 31015KT 10SM CLR 12/01 A3006 RMK AO2 SLP211 T01170006 53030 $
Loading
Personal Weather Stations






























Interactive Weather Map New forecast layout! Learn more

10-Day Weather Forecast

Advertisements
Track Severe Weather on mobile